sensor_id;sensor_type;location;lat;lon;timestamp;P1;durP1;ratioP1;P2;durP2;ratioP2
2720;SDS011;1368;49.484;11.112;2023-09-19T00:00:37;5.97;;;3.57;;
2720;SDS011;1368;49.484;11.112;2023-09-19T00:03:03;4.67;;;2.83;;
2720;SDS011;1368;49.484;11.112;2023-09-19T00:05:33;6.77;;;3.67;;
2720;SDS011;1368;49.484;11.112;2023-09-19T00:08:00;5.53;;;3.80;;
2720;SDS011;1368;49.484;11.112;2023-09-19T00:10:26;5.10;;;3.47;;
2720;SDS011;1368;49.484;11.112;2023-09-19T00:12:55;10.50;;;3.57;;
2720;SDS011;1368;49.484;11.112;2023-09-19T00:15:23;4.37;;;3.13;;
2720;SDS011;1368;49.484;11.112;2023-09-19T00:17:49;7.83;;;3.63;;
2720;SDS011;1368;49.484;11.112;2023-09-19T00:20:17;6.50;;;3.80;;
2720;SDS011;1368;49.484;11.112;2023-09-19T00:22:43;8.37;;;4.07;;
2720;SDS011;1368;49.484;11.112;2023-09-19T00:25:09;6.63;;;4.03;;
2720;SDS011;1368;49.484;11.112;2023-09-19T00:27:36;6.97;;;3.83;;
2720;SDS011;1368;49.484;11.112;2023-09-19T00:30:06;7.90;;;4.10;;
2720;SDS011;1368;49.484;11.112;2023-09-19T00:32:39;7.90;;;4.40;;
2720;SDS011;1368;49.484;11.112;2023-09-19T00:35:05;6.80;;;5.10;;
2720;SDS011;1368;49.484;11.112;2023-09-19T00:37:33;5.27;;;3.87;;
2720;SDS011;1368;49.484;11.112;2023-09-19T00:39:59;6.80;;;3.60;;
2720;SDS011;1368;49.484;11.112;2023-09-19T00:42:24;6.73;;;4.53;;
2720;SDS011;1368;49.484;11.112;2023-09-19T00:44:50;9.33;;;3.73;;
2720;SDS011;1368;49.484;11.112;2023-09-19T00:47:17;11.27;;;5.17;;
2720;SDS011;1368;49.484;11.112;2023-09-19T00:49:44;8.37;;;4.17;;
2720;SDS011;1368;49.484;11.112;2023-09-19T00:52:14;7.37;;;4.30;;
2720;SDS011;1368;49.484;11.112;2023-09-19T00:54:39;15.17;;;4.60;;
2720;SDS011;1368;49.484;11.112;2023-09-19T00:57:05;8.43;;;4.60;;
2720;SDS011;1368;49.484;11.112;2023-09-19T00:59:32;6.63;;;4.47;;
2720;SDS011;1368;49.484;11.112;2023-09-19T01:02:00;8.30;;;4.80;;
2720;SDS011;1368;49.484;11.112;2023-09-19T01:04:27;9.30;;;4.40;;
2720;SDS011;1368;49.484;11.112;2023-09-19T01:06:53;6.53;;;4.23;;
2720;SDS011;1368;49.484;11.112;2023-09-19T01:09:19;6.60;;;4.77;;
2720;SDS011;1368;49.484;11.112;2023-09-19T01:11:46;8.63;;;4.63;;
2720;SDS011;1368;49.484;11.112;2023-09-19T01:14:31;7.53;;;4.53;;
2720;SDS011;1368;49.484;11.112;2023-09-19T01:17:14;6.10;;;4.73;;
2720;SDS011;1368;49.484;11.112;2023-09-19T01:28:02;6.30;;;4.00;;
2720;SDS011;1368;49.484;11.112;2023-09-19T01:30:33;6.10;;;3.53;;
2720;SDS011;1368;49.484;11.112;2023-09-19T01:33:02;6.13;;;3.97;;
2720;SDS011;1368;49.484;11.112;2023-09-19T01:35:31;5.80;;;3.80;;
2720;SDS011;1368;49.484;11.112;2023-09-19T01:37:57;5.77;;;4.10;;
2720;SDS011;1368;49.484;11.112;2023-09-19T01:40:24;4.63;;;3.33;;
2720;SDS011;1368;49.484;11.112;2023-09-19T01:42:57;6.60;;;3.80;;
2720;SDS011;1368;49.484;11.112;2023-09-19T01:45:51;6.30;;;3.30;;
2720;SDS011;1368;49.484;11.112;2023-09-19T01:51:17;4.20;;;3.10;;
2720;SDS011;1368;49.484;11.112;2023-09-19T01:54:01;5.83;;;3.00;;
2720;SDS011;1368;49.484;11.112;2023-09-19T01:56:37;4.90;;;3.00;;
2720;SDS011;1368;49.484;11.112;2023-09-19T01:59:11;6.53;;;3.57;;
2720;SDS011;1368;49.484;11.112;2023-09-19T02:01:40;7.63;;;2.70;;
2720;SDS011;1368;49.484;11.112;2023-09-19T02:04:09;4.60;;;2.80;;
2720;SDS011;1368;49.484;11.112;2023-09-19T02:06:35;4.80;;;3.60;;
2720;SDS011;1368;49.484;11.112;2023-09-19T02:09:06;5.97;;;3.40;;
2720;SDS011;1368;49.484;11.112;2023-09-19T02:11:32;8.10;;;3.60;;
2720;SDS011;1368;49.484;11.112;2023-09-19T02:13:57;5.40;;;3.53;;
2720;SDS011;1368;49.484;11.112;2023-09-19T02:16:24;6.63;;;2.67;;
2720;SDS011;1368;49.484;11.112;2023-09-19T02:18:50;5.10;;;3.00;;
2720;SDS011;1368;49.484;11.112;2023-09-19T02:21:16;4.33;;;2.73;;
2720;SDS011;1368;49.484;11.112;2023-09-19T02:23:42;4.40;;;2.73;;
2720;SDS011;1368;49.484;11.112;2023-09-19T02:26:09;5.57;;;2.50;;
2720;SDS011;1368;49.484;11.112;2023-09-19T02:28:34;5.70;;;2.83;;
2720;SDS011;1368;49.484;11.112;2023-09-19T02:31:00;5.40;;;2.40;;
2720;SDS011;1368;49.484;11.112;2023-09-19T02:33:26;4.67;;;2.83;;
2720;SDS011;1368;49.484;11.112;2023-09-19T02:35:57;3.40;;;2.30;;
2720;SDS011;1368;49.484;11.112;2023-09-19T02:38:23;5.30;;;2.53;;
2720;SDS011;1368;49.484;11.112;2023-09-19T02:40:52;5.20;;;2.40;;
2720;SDS011;1368;49.484;11.112;2023-09-19T02:43:20;4.37;;;2.27;;
2720;SDS011;1368;49.484;11.112;2023-09-19T02:45:46;5.00;;;2.50;;
2720;SDS011;1368;49.484;11.112;2023-09-19T02:48:11;3.07;;;2.13;;
2720;SDS011;1368;49.484;11.112;2023-09-19T02:50:37;5.63;;;2.70;;
2720;SDS011;1368;49.484;11.112;2023-09-19T02:53:05;3.40;;;2.43;;
2720;SDS011;1368;49.484;11.112;2023-09-19T02:55:31;6.50;;;3.10;;
2720;SDS011;1368;49.484;11.112;2023-09-19T02:57:57;3.73;;;2.10;;
2720;SDS011;1368;49.484;11.112;2023-09-19T03:00:23;3.80;;;2.27;;
2720;SDS011;1368;49.484;11.112;2023-09-19T03:02:50;3.83;;;2.17;;
2720;SDS011;1368;49.484;11.112;2023-09-19T03:05:18;4.23;;;2.40;;
2720;SDS011;1368;49.484;11.112;2023-09-19T03:07:43;3.80;;;2.30;;
2720;SDS011;1368;49.484;11.112;2023-09-19T03:10:11;5.53;;;2.37;;
2720;SDS011;1368;49.484;11.112;2023-09-19T03:12:36;4.03;;;2.30;;
2720;SDS011;1368;49.484;11.112;2023-09-19T03:15:03;9.03;;;2.73;;
2720;SDS011;1368;49.484;11.112;2023-09-19T03:17:29;3.17;;;2.23;;
2720;SDS011;1368;49.484;11.112;2023-09-19T03:19:55;4.13;;;2.30;;
2720;SDS011;1368;49.484;11.112;2023-09-19T03:22:22;4.63;;;2.60;;
2720;SDS011;1368;49.484;11.112;2023-09-19T03:24:47;5.90;;;2.20;;
2720;SDS011;1368;49.484;11.112;2023-09-19T03:27:13;11.53;;;2.40;;
2720;SDS011;1368;49.484;11.112;2023-09-19T03:29:42;3.60;;;2.53;;
2720;SDS011;1368;49.484;11.112;2023-09-19T03:32:08;3.60;;;2.13;;
2720;SDS011;1368;49.484;11.112;2023-09-19T03:34:37;5.40;;;2.30;;
2720;SDS011;1368;49.484;11.112;2023-09-19T03:37:08;5.83;;;2.70;;
2720;SDS011;1368;49.484;11.112;2023-09-19T03:39:34;3.10;;;2.13;;
2720;SDS011;1368;49.484;11.112;2023-09-19T03:42:00;6.93;;;2.47;;
2720;SDS011;1368;49.484;11.112;2023-09-19T03:44:29;8.10;;;2.63;;
2720;SDS011;1368;49.484;11.112;2023-09-19T03:46:55;3.87;;;2.30;;
2720;SDS011;1368;49.484;11.112;2023-09-19T03:49:21;3.40;;;2.67;;
2720;SDS011;1368;49.484;11.112;2023-09-19T03:51:47;5.43;;;2.40;;
2720;SDS011;1368;49.484;11.112;2023-09-19T03:54:12;6.57;;;2.40;;
2720;SDS011;1368;49.484;11.112;2023-09-19T03:56:38;5.10;;;2.80;;
2720;SDS011;1368;49.484;11.112;2023-09-19T03:59:03;5.40;;;2.43;;
2720;SDS011;1368;49.484;11.112;2023-09-19T04:01:29;4.60;;;2.43;;
2720;SDS011;1368;49.484;11.112;2023-09-19T04:03:57;7.20;;;2.90;;
2720;SDS011;1368;49.484;11.112;2023-09-19T04:06:22;4.97;;;2.80;;
2720;SDS011;1368;49.484;11.112;2023-09-19T04:08:48;6.50;;;2.63;;
2720;SDS011;1368;49.484;11.112;2023-09-19T04:11:14;5.57;;;2.70;;
2720;SDS011;1368;49.484;11.112;2023-09-19T04:13:39;5.83;;;3.13;;
2720;SDS011;1368;49.484;11.112;2023-09-19T04:16:05;8.17;;;3.63;;
2720;SDS011;1368;49.484;11.112;2023-09-19T04:18:32;7.23;;;2.60;;
2720;SDS011;1368;49.484;11.112;2023-09-19T04:20:58;6.00;;;2.90;;
2720;SDS011;1368;49.484;11.112;2023-09-19T04:23:27;5.27;;;2.83;;
2720;SDS011;1368;49.484;11.112;2023-09-19T04:25:53;5.50;;;3.30;;
2720;SDS011;1368;49.484;11.112;2023-09-19T04:28:18;6.27;;;2.90;;
2720;SDS011;1368;49.484;11.112;2023-09-19T04:30:44;5.30;;;2.97;;
2720;SDS011;1368;49.484;11.112;2023-09-19T04:33:09;8.27;;;2.93;;
2720;SDS011;1368;49.484;11.112;2023-09-19T04:35:35;4.07;;;2.40;;
2720;SDS011;1368;49.484;11.112;2023-09-19T04:38:01;3.40;;;2.20;;
2720;SDS011;1368;49.484;11.112;2023-09-19T04:40:28;3.70;;;2.30;;
2720;SDS011;1368;49.484;11.112;2023-09-19T04:42:54;3.93;;;2.53;;
2720;SDS011;1368;49.484;11.112;2023-09-19T04:45:24;4.07;;;2.63;;
2720;SDS011;1368;49.484;11.112;2023-09-19T04:47:49;4.43;;;2.60;;
2720;SDS011;1368;49.484;11.112;2023-09-19T04:50:15;4.50;;;2.50;;
2720;SDS011;1368;49.484;11.112;2023-09-19T04:52:42;4.90;;;2.40;;
2720;SDS011;1368;49.484;11.112;2023-09-19T04:55:15;7.23;;;2.90;;
2720;SDS011;1368;49.484;11.112;2023-09-19T04:57:47;8.33;;;3.40;;
2720;SDS011;1368;49.484;11.112;2023-09-19T05:00:16;3.93;;;2.50;;
2720;SDS011;1368;49.484;11.112;2023-09-19T05:02:43;8.03;;;3.10;;
2720;SDS011;1368;49.484;11.112;2023-09-19T05:05:09;4.53;;;2.53;;
2720;SDS011;1368;49.484;11.112;2023-09-19T05:07:36;8.90;;;2.90;;
2720;SDS011;1368;49.484;11.112;2023-09-19T05:10:04;6.77;;;2.73;;
2720;SDS011;1368;49.484;11.112;2023-09-19T05:12:34;6.47;;;2.53;;
2720;SDS011;1368;49.484;11.112;2023-09-19T05:15:01;4.20;;;2.50;;
2720;SDS011;1368;49.484;11.112;2023-09-19T05:17:30;5.03;;;2.60;;
2720;SDS011;1368;49.484;11.112;2023-09-19T05:19:56;3.43;;;2.07;;
2720;SDS011;1368;49.484;11.112;2023-09-19T05:22:22;6.67;;;2.70;;
2720;SDS011;1368;49.484;11.112;2023-09-19T05:24:49;8.33;;;2.33;;
2720;SDS011;1368;49.484;11.112;2023-09-19T05:27:16;4.17;;;2.50;;
2720;SDS011;1368;49.484;11.112;2023-09-19T05:29:42;7.77;;;3.00;;
2720;SDS011;1368;49.484;11.112;2023-09-19T05:32:09;5.90;;;2.63;;
2720;SDS011;1368;49.484;11.112;2023-09-19T05:34:35;7.33;;;2.73;;
2720;SDS011;1368;49.484;11.112;2023-09-19T05:37:01;6.00;;;2.30;;
2720;SDS011;1368;49.484;11.112;2023-09-19T05:39:27;7.10;;;3.10;;
2720;SDS011;1368;49.484;11.112;2023-09-19T05:41:53;7.33;;;2.67;;
2720;SDS011;1368;49.484;11.112;2023-09-19T05:44:18;4.30;;;2.40;;
2720;SDS011;1368;49.484;11.112;2023-09-19T05:46:44;4.60;;;2.23;;
2720;SDS011;1368;49.484;11.112;2023-09-19T05:49:13;6.90;;;2.83;;
2720;SDS011;1368;49.484;11.112;2023-09-19T05:51:38;5.63;;;2.37;;
2720;SDS011;1368;49.484;11.112;2023-09-19T05:54:04;5.83;;;2.97;;
2720;SDS011;1368;49.484;11.112;2023-09-19T05:56:30;9.10;;;2.43;;
2720;SDS011;1368;49.484;11.112;2023-09-19T05:58:56;6.07;;;2.70;;
2720;SDS011;1368;49.484;11.112;2023-09-19T06:01:21;8.10;;;3.10;;
2720;SDS011;1368;49.484;11.112;2023-09-19T06:03:47;5.70;;;2.90;;
2720;SDS011;1368;49.484;11.112;2023-09-19T06:06:13;4.53;;;2.87;;
2720;SDS011;1368;49.484;11.112;2023-09-19T06:08:39;5.40;;;2.63;;
2720;SDS011;1368;49.484;11.112;2023-09-19T06:11:04;7.17;;;2.97;;
2720;SDS011;1368;49.484;11.112;2023-09-19T06:13:34;5.20;;;2.93;;
2720;SDS011;1368;49.484;11.112;2023-09-19T06:15:59;4.03;;;2.30;;
2720;SDS011;1368;49.484;11.112;2023-09-19T06:18:29;5.33;;;2.60;;
2720;SDS011;1368;49.484;11.112;2023-09-19T06:20:58;6.17;;;3.27;;
2720;SDS011;1368;49.484;11.112;2023-09-19T06:23:24;4.33;;;2.60;;
2720;SDS011;1368;49.484;11.112;2023-09-19T06:25:51;4.70;;;2.57;;
2720;SDS011;1368;49.484;11.112;2023-09-19T06:28:18;5.20;;;2.90;;
2720;SDS011;1368;49.484;11.112;2023-09-19T06:30:48;5.10;;;2.93;;
2720;SDS011;1368;49.484;11.112;2023-09-19T06:33:14;4.50;;;2.40;;
2720;SDS011;1368;49.484;11.112;2023-09-19T06:35:40;6.60;;;2.87;;
2720;SDS011;1368;49.484;11.112;2023-09-19T06:38:07;3.60;;;2.50;;
2720;SDS011;1368;49.484;11.112;2023-09-19T06:40:33;5.40;;;2.83;;
2720;SDS011;1368;49.484;11.112;2023-09-19T06:42:59;6.40;;;2.50;;
2720;SDS011;1368;49.484;11.112;2023-09-19T06:45:27;5.10;;;2.50;;
2720;SDS011;1368;49.484;11.112;2023-09-19T06:47:52;7.20;;;2.50;;
2720;SDS011;1368;49.484;11.112;2023-09-19T06:50:22;8.03;;;2.80;;
2720;SDS011;1368;49.484;11.112;2023-09-19T06:52:49;4.70;;;2.50;;
2720;SDS011;1368;49.484;11.112;2023-09-19T06:55:16;6.27;;;2.40;;
2720;SDS011;1368;49.484;11.112;2023-09-19T06:57:44;5.20;;;2.07;;
2720;SDS011;1368;49.484;11.112;2023-09-19T07:00:13;8.20;;;2.70;;
2720;SDS011;1368;49.484;11.112;2023-09-19T07:03:00;5.40;;;2.03;;
2720;SDS011;1368;49.484;11.112;2023-09-19T07:05:29;4.50;;;2.40;;
2720;SDS011;1368;49.484;11.112;2023-09-19T07:07:56;4.93;;;1.70;;
2720;SDS011;1368;49.484;11.112;2023-09-19T07:10:23;3.50;;;1.80;;
2720;SDS011;1368;49.484;11.112;2023-09-19T07:13:00;6.37;;;2.30;;
2720;SDS011;1368;49.484;11.112;2023-09-19T07:15:27;5.00;;;1.50;;
2720;SDS011;1368;49.484;11.112;2023-09-19T07:17:55;4.60;;;2.20;;
2720;SDS011;1368;49.484;11.112;2023-09-19T07:20:22;4.30;;;2.13;;
2720;SDS011;1368;49.484;11.112;2023-09-19T07:22:50;3.90;;;1.80;;
2720;SDS011;1368;49.484;11.112;2023-09-19T07:25:16;4.47;;;2.23;;
2720;SDS011;1368;49.484;11.112;2023-09-19T07:27:41;3.87;;;2.00;;
2720;SDS011;1368;49.484;11.112;2023-09-19T07:30:08;3.83;;;2.00;;
2720;SDS011;1368;49.484;11.112;2023-09-19T07:32:34;9.17;;;1.70;;
2720;SDS011;1368;49.484;11.112;2023-09-19T07:35:03;3.87;;;2.20;;
2720;SDS011;1368;49.484;11.112;2023-09-19T07:37:30;4.77;;;2.30;;
2720;SDS011;1368;49.484;11.112;2023-09-19T07:39:58;4.97;;;2.27;;
2720;SDS011;1368;49.484;11.112;2023-09-19T07:42:24;3.67;;;1.93;;
2720;SDS011;1368;49.484;11.112;2023-09-19T07:44:50;5.20;;;2.80;;
2720;SDS011;1368;49.484;11.112;2023-09-19T07:47:16;3.70;;;1.90;;
2720;SDS011;1368;49.484;11.112;2023-09-19T07:49:42;5.63;;;2.27;;
2720;SDS011;1368;49.484;11.112;2023-09-19T07:52:08;3.73;;;2.17;;
2720;SDS011;1368;49.484;11.112;2023-09-19T07:54:34;5.63;;;2.77;;
2720;SDS011;1368;49.484;11.112;2023-09-19T07:57:00;9.17;;;2.30;;
2720;SDS011;1368;49.484;11.112;2023-09-19T07:59:27;5.50;;;2.23;;
2720;SDS011;1368;49.484;11.112;2023-09-19T08:01:52;5.87;;;2.60;;
2720;SDS011;1368;49.484;11.112;2023-09-19T08:04:18;6.23;;;2.70;;
2720;SDS011;1368;49.484;11.112;2023-09-19T08:06:44;7.53;;;2.73;;
2720;SDS011;1368;49.484;11.112;2023-09-19T08:09:10;6.30;;;2.13;;
2720;SDS011;1368;49.484;11.112;2023-09-19T08:11:36;3.40;;;1.87;;
2720;SDS011;1368;49.484;11.112;2023-09-19T08:14:02;9.80;;;2.40;;
2720;SDS011;1368;49.484;11.112;2023-09-19T08:16:27;4.30;;;2.57;;
2720;SDS011;1368;49.484;11.112;2023-09-19T08:18:53;4.43;;;2.27;;
2720;SDS011;1368;49.484;11.112;2023-09-19T08:21:21;4.23;;;2.50;;
2720;SDS011;1368;49.484;11.112;2023-09-19T08:23:48;8.73;;;3.83;;
2720;SDS011;1368;49.484;11.112;2023-09-19T08:26:14;5.07;;;2.47;;
2720;SDS011;1368;49.484;11.112;2023-09-19T08:28:39;6.60;;;2.30;;
2720;SDS011;1368;49.484;11.112;2023-09-19T08:31:08;6.73;;;2.67;;
2720;SDS011;1368;49.484;11.112;2023-09-19T08:33:35;6.20;;;2.00;;
2720;SDS011;1368;49.484;11.112;2023-09-19T08:36:01;5.47;;;2.40;;
2720;SDS011;1368;49.484;11.112;2023-09-19T08:38:30;6.50;;;2.77;;
2720;SDS011;1368;49.484;11.112;2023-09-19T08:40:58;3.50;;;2.00;;
2720;SDS011;1368;49.484;11.112;2023-09-19T08:43:24;3.87;;;1.90;;
2720;SDS011;1368;49.484;11.112;2023-09-19T08:45:51;3.80;;;2.00;;
2720;SDS011;1368;49.484;11.112;2023-09-19T08:48:24;3.70;;;2.40;;
2720;SDS011;1368;49.484;11.112;2023-09-19T08:50:56;5.63;;;2.33;;
2720;SDS011;1368;49.484;11.112;2023-09-19T08:53:58;4.33;;;2.00;;
2720;SDS011;1368;49.484;11.112;2023-09-19T08:56:18;6.23;;;2.87;;
2720;SDS011;1368;49.484;11.112;2023-09-19T09:01:18;8.20;;;2.60;;
2720;SDS011;1368;49.484;11.112;2023-09-19T09:03:50;4.30;;;2.17;;
2720;SDS011;1368;49.484;11.112;2023-09-19T09:06:18;2.87;;;1.80;;
2720;SDS011;1368;49.484;11.112;2023-09-19T09:08:46;6.20;;;2.20;;
2720;SDS011;1368;49.484;11.112;2023-09-19T09:11:15;3.13;;;1.80;;
2720;SDS011;1368;49.484;11.112;2023-09-19T09:13:42;3.30;;;2.00;;
2720;SDS011;1368;49.484;11.112;2023-09-19T09:16:09;3.60;;;1.70;;
2720;SDS011;1368;49.484;11.112;2023-09-19T09:18:35;4.80;;;2.10;;
2720;SDS011;1368;49.484;11.112;2023-09-19T09:21:02;5.43;;;2.20;;
2720;SDS011;1368;49.484;11.112;2023-09-19T09:23:29;4.10;;;2.00;;
2720;SDS011;1368;49.484;11.112;2023-09-19T09:25:57;3.30;;;1.90;;
2720;SDS011;1368;49.484;11.112;2023-09-19T09:28:27;5.20;;;2.20;;
2720;SDS011;1368;49.484;11.112;2023-09-19T09:30:55;6.30;;;2.30;;
2720;SDS011;1368;49.484;11.112;2023-09-19T09:33:23;3.27;;;1.70;;
2720;SDS011;1368;49.484;11.112;2023-09-19T09:35:49;3.77;;;2.17;;
2720;SDS011;1368;49.484;11.112;2023-09-19T09:38:18;3.30;;;1.77;;
2720;SDS011;1368;49.484;11.112;2023-09-19T09:40:49;3.70;;;1.73;;
2720;SDS011;1368;49.484;11.112;2023-09-19T09:49:05;5.13;;;1.70;;
2720;SDS011;1368;49.484;11.112;2023-09-19T09:51:51;3.87;;;1.50;;
2720;SDS011;1368;49.484;11.112;2023-09-19T09:54:32;7.50;;;2.00;;
2720;SDS011;1368;49.484;11.112;2023-09-19T09:57:02;3.70;;;1.70;;
2720;SDS011;1368;49.484;11.112;2023-09-19T09:59:51;3.90;;;1.73;;
2720;SDS011;1368;49.484;11.112;2023-09-19T10:02:26;5.30;;;1.70;;
2720;SDS011;1368;49.484;11.112;2023-09-19T10:05:10;4.67;;;1.80;;
2720;SDS011;1368;49.484;11.112;2023-09-19T10:07:45;3.77;;;1.97;;
2720;SDS011;1368;49.484;11.112;2023-09-19T10:13:03;4.83;;;1.83;;
2720;SDS011;1368;49.484;11.112;2023-09-19T10:15:32;5.83;;;2.07;;
2720;SDS011;1368;49.484;11.112;2023-09-19T10:18:02;12.00;;;2.30;;
2720;SDS011;1368;49.484;11.112;2023-09-19T10:20:30;4.10;;;1.80;;
2720;SDS011;1368;49.484;11.112;2023-09-19T10:23:00;4.63;;;1.60;;
2720;SDS011;1368;49.484;11.112;2023-09-19T10:25:29;3.93;;;1.70;;
2720;SDS011;1368;49.484;11.112;2023-09-19T10:27:55;5.47;;;1.90;;
2720;SDS011;1368;49.484;11.112;2023-09-19T10:30:30;3.23;;;1.70;;
2720;SDS011;1368;49.484;11.112;2023-09-19T10:35:25;5.73;;;2.90;;
2720;SDS011;1368;49.484;11.112;2023-09-19T10:37:52;4.70;;;2.17;;
2720;SDS011;1368;49.484;11.112;2023-09-19T10:40:22;5.40;;;1.50;;
2720;SDS011;1368;49.484;11.112;2023-09-19T10:42:55;6.83;;;2.63;;
2720;SDS011;1368;49.484;11.112;2023-09-19T10:45:26;3.93;;;1.90;;
2720;SDS011;1368;49.484;11.112;2023-09-19T10:47:54;5.20;;;2.27;;
2720;SDS011;1368;49.484;11.112;2023-09-19T10:50:21;4.03;;;2.20;;
2720;SDS011;1368;49.484;11.112;2023-09-19T10:52:47;5.10;;;2.67;;
2720;SDS011;1368;49.484;11.112;2023-09-19T10:55:17;4.03;;;1.93;;
2720;SDS011;1368;49.484;11.112;2023-09-19T10:57:45;5.60;;;2.47;;
2720;SDS011;1368;49.484;11.112;2023-09-19T11:00:12;3.83;;;2.70;;
2720;SDS011;1368;49.484;11.112;2023-09-19T11:05:40;7.13;;;2.40;;
2720;SDS011;1368;49.484;11.112;2023-09-19T11:08:09;5.13;;;2.60;;
2720;SDS011;1368;49.484;11.112;2023-09-19T11:13:31;6.87;;;2.80;;
2720;SDS011;1368;49.484;11.112;2023-09-19T11:21:50;4.73;;;2.27;;
2720;SDS011;1368;49.484;11.112;2023-09-19T11:26:57;3.40;;;2.20;;
2720;SDS011;1368;49.484;11.112;2023-09-19T11:29:42;6.37;;;3.03;;
2720;SDS011;1368;49.484;11.112;2023-09-19T11:32:08;4.07;;;2.63;;
2720;SDS011;1368;49.484;11.112;2023-09-19T11:34:38;6.73;;;3.10;;
2720;SDS011;1368;49.484;11.112;2023-09-19T11:39:39;19.70;;;5.90;;
2720;SDS011;1368;49.484;11.112;2023-09-19T11:48:10;17.53;;;4.70;;
2720;SDS011;1368;49.484;11.112;2023-09-19T11:50:50;7.97;;;3.47;;
2720;SDS011;1368;49.484;11.112;2023-09-19T11:53:17;6.00;;;2.30;;
2720;SDS011;1368;49.484;11.112;2023-09-19T11:55:44;4.10;;;1.80;;
2720;SDS011;1368;49.484;11.112;2023-09-19T11:58:11;3.33;;;1.93;;
2720;SDS011;1368;49.484;11.112;2023-09-19T12:00:39;4.10;;;2.00;;
2720;SDS011;1368;49.484;11.112;2023-09-19T12:03:09;4.50;;;1.87;;
2720;SDS011;1368;49.484;11.112;2023-09-19T12:05:43;5.43;;;2.50;;
2720;SDS011;1368;49.484;11.112;2023-09-19T12:08:09;5.17;;;2.03;;
2720;SDS011;1368;49.484;11.112;2023-09-19T12:10:47;6.20;;;2.53;;
2720;SDS011;1368;49.484;11.112;2023-09-19T12:13:17;5.00;;;1.80;;
2720;SDS011;1368;49.484;11.112;2023-09-19T12:15:43;16.20;;;3.90;;
2720;SDS011;1368;49.484;11.112;2023-09-19T12:18:28;12.90;;;3.10;;
2720;SDS011;1368;49.484;11.112;2023-09-19T12:20:55;9.17;;;2.73;;
2720;SDS011;1368;49.484;11.112;2023-09-19T12:23:22;6.50;;;1.90;;
2720;SDS011;1368;49.484;11.112;2023-09-19T12:25:48;7.30;;;2.37;;
2720;SDS011;1368;49.484;11.112;2023-09-19T12:28:18;4.33;;;2.00;;
2720;SDS011;1368;49.484;11.112;2023-09-19T12:30:47;4.20;;;2.17;;
2720;SDS011;1368;49.484;11.112;2023-09-19T12:33:17;4.60;;;1.70;;
2720;SDS011;1368;49.484;11.112;2023-09-19T12:35:45;5.50;;;1.87;;
2720;SDS011;1368;49.484;11.112;2023-09-19T12:38:10;4.50;;;1.83;;
2720;SDS011;1368;49.484;11.112;2023-09-19T12:40:49;4.53;;;1.43;;
2720;SDS011;1368;49.484;11.112;2023-09-19T12:43:16;6.20;;;1.73;;
2720;SDS011;1368;49.484;11.112;2023-09-19T12:45:43;4.17;;;1.90;;
2720;SDS011;1368;49.484;11.112;2023-09-19T12:48:22;7.80;;;2.20;;
2720;SDS011;1368;49.484;11.112;2023-09-19T12:51:06;15.30;;;4.10;;
2720;SDS011;1368;49.484;11.112;2023-09-19T12:53:33;5.87;;;2.07;;
2720;SDS011;1368;49.484;11.112;2023-09-19T12:56:03;3.30;;;1.60;;
2720;SDS011;1368;49.484;11.112;2023-09-19T12:58:33;9.00;;;1.77;;
2720;SDS011;1368;49.484;11.112;2023-09-19T13:01:00;3.80;;;1.80;;
2720;SDS011;1368;49.484;11.112;2023-09-19T13:03:30;6.63;;;2.00;;
2720;SDS011;1368;49.484;11.112;2023-09-19T13:06:02;6.90;;;1.87;;
2720;SDS011;1368;49.484;11.112;2023-09-19T13:08:37;6.53;;;1.93;;
2720;SDS011;1368;49.484;11.112;2023-09-19T13:13:43;9.23;;;2.83;;
2720;SDS011;1368;49.484;11.112;2023-09-19T13:16:20;5.80;;;1.93;;
2720;SDS011;1368;49.484;11.112;2023-09-19T13:18:51;6.60;;;2.30;;
2720;SDS011;1368;49.484;11.112;2023-09-19T13:21:28;4.93;;;2.00;;
2720;SDS011;1368;49.484;11.112;2023-09-19T13:24:21;3.87;;;2.10;;
2720;SDS011;1368;49.484;11.112;2023-09-19T13:26:48;4.20;;;2.07;;
2720;SDS011;1368;49.484;11.112;2023-09-19T13:29:14;7.53;;;2.17;;
2720;SDS011;1368;49.484;11.112;2023-09-19T13:31:45;5.43;;;1.93;;
2720;SDS011;1368;49.484;11.112;2023-09-19T13:34:14;5.60;;;2.00;;
2720;SDS011;1368;49.484;11.112;2023-09-19T13:36:42;5.03;;;2.00;;
2720;SDS011;1368;49.484;11.112;2023-09-19T13:39:08;3.53;;;1.70;;
2720;SDS011;1368;49.484;11.112;2023-09-19T13:41:34;6.13;;;2.17;;
2720;SDS011;1368;49.484;11.112;2023-09-19T13:44:02;6.23;;;2.10;;
2720;SDS011;1368;49.484;11.112;2023-09-19T13:46:28;3.10;;;1.80;;
2720;SDS011;1368;49.484;11.112;2023-09-19T13:48:53;4.40;;;2.27;;
2720;SDS011;1368;49.484;11.112;2023-09-19T13:51:20;6.53;;;2.30;;
2720;SDS011;1368;49.484;11.112;2023-09-19T13:53:48;5.33;;;2.30;;
2720;SDS011;1368;49.484;11.112;2023-09-19T13:56:14;4.50;;;2.53;;
2720;SDS011;1368;49.484;11.112;2023-09-19T13:58:39;4.53;;;1.57;;
2720;SDS011;1368;49.484;11.112;2023-09-19T14:01:06;4.30;;;2.20;;
2720;SDS011;1368;49.484;11.112;2023-09-19T14:03:37;8.00;;;2.40;;
2720;SDS011;1368;49.484;11.112;2023-09-19T14:06:03;2.60;;;1.53;;
2720;SDS011;1368;49.484;11.112;2023-09-19T14:08:29;6.17;;;1.80;;
2720;SDS011;1368;49.484;11.112;2023-09-19T14:10:55;6.03;;;1.90;;
2720;SDS011;1368;49.484;11.112;2023-09-19T14:13:21;4.60;;;2.00;;
2720;SDS011;1368;49.484;11.112;2023-09-19T14:15:46;3.53;;;1.90;;
2720;SDS011;1368;49.484;11.112;2023-09-19T14:18:12;6.47;;;2.50;;
2720;SDS011;1368;49.484;11.112;2023-09-19T14:20:38;6.33;;;2.50;;
2720;SDS011;1368;49.484;11.112;2023-09-19T14:23:05;4.70;;;2.17;;
2720;SDS011;1368;49.484;11.112;2023-09-19T14:25:31;4.13;;;1.97;;
2720;SDS011;1368;49.484;11.112;2023-09-19T14:27:59;8.73;;;2.13;;
2720;SDS011;1368;49.484;11.112;2023-09-19T14:30:25;5.80;;;2.10;;
2720;SDS011;1368;49.484;11.112;2023-09-19T14:32:51;5.07;;;1.70;;
2720;SDS011;1368;49.484;11.112;2023-09-19T14:35:16;4.00;;;1.83;;
2720;SDS011;1368;49.484;11.112;2023-09-19T14:37:42;6.10;;;1.90;;
2720;SDS011;1368;49.484;11.112;2023-09-19T14:40:08;3.50;;;2.00;;
2720;SDS011;1368;49.484;11.112;2023-09-19T14:42:38;6.60;;;1.73;;
2720;SDS011;1368;49.484;11.112;2023-09-19T14:45:05;7.83;;;2.60;;
2720;SDS011;1368;49.484;11.112;2023-09-19T14:47:31;5.50;;;2.17;;
2720;SDS011;1368;49.484;11.112;2023-09-19T14:49:59;6.80;;;2.03;;
2720;SDS011;1368;49.484;11.112;2023-09-19T14:52:31;4.10;;;2.10;;
2720;SDS011;1368;49.484;11.112;2023-09-19T14:54:58;3.23;;;1.83;;
2720;SDS011;1368;49.484;11.112;2023-09-19T14:57:24;4.87;;;1.70;;
2720;SDS011;1368;49.484;11.112;2023-09-19T14:59:51;3.63;;;2.00;;
2720;SDS011;1368;49.484;11.112;2023-09-19T15:02:17;5.50;;;2.27;;
2720;SDS011;1368;49.484;11.112;2023-09-19T15:04:42;6.23;;;2.33;;
2720;SDS011;1368;49.484;11.112;2023-09-19T15:07:09;4.70;;;2.10;;
2720;SDS011;1368;49.484;11.112;2023-09-19T15:09:35;4.33;;;1.73;;
2720;SDS011;1368;49.484;11.112;2023-09-19T15:12:01;5.30;;;2.40;;
2720;SDS011;1368;49.484;11.112;2023-09-19T15:14:27;4.30;;;2.10;;
2720;SDS011;1368;49.484;11.112;2023-09-19T15:16:54;3.90;;;2.10;;
2720;SDS011;1368;49.484;11.112;2023-09-19T15:19:20;5.93;;;2.10;;
2720;SDS011;1368;49.484;11.112;2023-09-19T15:21:47;4.40;;;2.10;;
2720;SDS011;1368;49.484;11.112;2023-09-19T15:24:13;7.43;;;2.40;;
2720;SDS011;1368;49.484;11.112;2023-09-19T15:26:39;3.93;;;1.73;;
2720;SDS011;1368;49.484;11.112;2023-09-19T15:29:05;4.07;;;1.70;;
2720;SDS011;1368;49.484;11.112;2023-09-19T15:31:31;4.70;;;1.70;;
2720;SDS011;1368;49.484;11.112;2023-09-19T15:33:57;5.10;;;1.77;;
2720;SDS011;1368;49.484;11.112;2023-09-19T15:36:23;5.50;;;1.63;;
2720;SDS011;1368;49.484;11.112;2023-09-19T15:39:01;4.77;;;1.57;;
2720;SDS011;1368;49.484;11.112;2023-09-19T15:41:29;3.77;;;1.70;;
2720;SDS011;1368;49.484;11.112;2023-09-19T15:43:56;8.33;;;2.10;;
2720;SDS011;1368;49.484;11.112;2023-09-19T15:46:24;4.47;;;1.67;;
2720;SDS011;1368;49.484;11.112;2023-09-19T15:48:51;4.73;;;1.80;;
2720;SDS011;1368;49.484;11.112;2023-09-19T15:51:17;5.00;;;2.00;;
2720;SDS011;1368;49.484;11.112;2023-09-19T15:53:44;5.50;;;2.33;;
2720;SDS011;1368;49.484;11.112;2023-09-19T15:56:12;5.20;;;2.03;;